Time;durP1;ratioP1;P1;durP2;ratioP2;P2;SDS_P1;SDS_P2;PMS_P1;PMS_P2;Temp;Humidity;BMP_temperature;BMP_pressure;BME280_temperature;BME280_humidity;BME280_pressure;Samples;Min_cycle;Max_cycle;Signal;HPM_P1;HPM_P2
2023/08/20 00:01:28;;;;;;;10.80;9.83;;;21.60;99.90;;;;;;5043105;28;20616;-77
2023/08/20 00:03:57;;;;;;;11.47;10.47;;;21.60;99.90;;;;;;5055927;28;20204;-77
2023/08/20 00:06:25;;;;;;;11.57;10.47;;;21.50;99.90;;;;;;5043530;28;20205;-77
2023/08/20 00:08:52;;;;;;;11.77;10.67;;;21.50;99.90;;;;;;5025438;28;20219;-76
2023/08/20 00:11:18;;;;;;;11.93;10.93;;;21.50;99.90;;;;;;5036514;28;20220;-78
2023/08/20 00:13:45;;;;;;;11.83;10.83;;;21.50;99.90;;;;;;5022796;28;20200;-77
2023/08/20 00:16:12;;;;;;;11.93;10.83;;;21.40;99.90;;;;;;5036699;28;20219;-77
2023/08/20 00:18:40;;;;;;;11.77;10.87;;;21.40;99.90;;;;;;5035042;28;20199;-77
2023/08/20 00:21:09;;;;;;;12.37;11.03;;;21.40;99.90;;;;;;5025505;28;20204;-77
2023/08/20 00:23:37;;;;;;;12.83;11.73;;;21.40;99.90;;;;;;5035245;28;20210;-77
2023/08/20 00:26:04;;;;;;;13.10;11.80;;;21.30;99.90;;;;;;5035240;28;20200;-77
2023/08/20 00:28:33;;;;;;;12.20;11.10;;;21.30;99.90;;;;;;5025607;28;20246;-76
2023/08/20 00:31:00;;;;;;;11.93;10.90;;;21.30;99.90;;;;;;5026074;28;20199;-76
2023/08/20 00:33:27;;;;;;;11.93;10.90;;;21.30;99.90;;;;;;5035039;28;20189;-77
2023/08/20 00:35:55;;;;;;;11.73;10.57;;;21.40;99.90;;;;;;5042137;28;20623;-77
2023/08/20 00:38:23;;;;;;;12.07;10.97;;;21.40;99.90;;;;;;5047651;28;20187;-77
2023/08/20 00:40:50;;;;;;;11.70;10.70;;;21.30;99.90;;;;;;5034711;28;20629;-77
2023/08/20 00:43:17;;;;;;;12.97;11.80;;;21.30;99.90;;;;;;5025332;28;20201;-77
2023/08/20 00:45:44;;;;;;;12.07;10.97;;;21.30;99.90;;;;;;5034079;28;20199;-77
2023/08/20 00:48:12;;;;;;;12.50;11.03;;;21.30;99.90;;;;;;5025137;28;20283;-77
2023/08/20 00:50:39;;;;;;;11.33;10.43;;;21.30;99.90;;;;;;5041035;28;20203;-77
2023/08/20 00:53:07;;;;;;;12.17;11.07;;;21.20;99.90;;;;;;5037944;28;20225;-76
2023/08/20 00:55:37;;;;;;;11.57;10.50;;;21.20;99.90;;;;;;5048310;28;20215;-77
2023/08/20 00:58:04;;;;;;;12.23;11.23;;;21.20;99.90;;;;;;5038503;28;20195;-77
2023/08/20 01:00:31;;;;;;;12.13;10.93;;;21.10;99.90;;;;;;5039817;28;20196;-77
2023/08/20 01:02:58;;;;;;;12.63;10.70;;;21.10;99.90;;;;;;5049652;28;20220;-77
2023/08/20 01:05:25;;;;;;;11.70;10.60;;;21.10;99.90;;;;;;5035176;28;20208;-77
2023/08/20 01:08:10;;;;;;;12.43;11.33;;;21.10;99.90;;;;;;5025182;28;20231;-77
2023/08/20 01:10:43;;;;;;;11.60;10.50;;;21.00;99.90;;;;;;5022683;28;20207;-76
2023/08/20 01:13:11;;;;;;;11.27;10.27;;;21.00;99.90;;;;;;5036695;28;20284;-77
2023/08/20 01:15:37;;;;;;;11.17;10.17;;;21.00;99.90;;;;;;5031016;28;20698;-77
2023/08/20 01:18:05;;;;;;;11.47;10.43;;;20.90;99.90;;;;;;5034808;28;20207;-77
2023/08/20 01:20:36;;;;;;;11.43;10.33;;;20.90;99.90;;;;;;5025067;28;20211;-77
2023/08/20 01:23:44;;;;;;;11.57;10.67;;;20.90;99.90;;;;;;5026537;28;20204;-77
2023/08/20 01:26:36;;;;;;;12.37;11.27;;;20.90;99.90;;;;;;5027952;28;20199;-77
2023/08/20 01:29:06;;;;;;;11.80;10.80;;;20.90;99.90;;;;;;5027219;28;20192;-77
2023/08/20 01:31:34;;;;;;;11.83;10.80;;;20.90;99.90;;;;;;5033344;28;20227;-77
2023/08/20 01:34:02;;;;;;;12.10;11.00;;;20.90;99.90;;;;;;5048520;28;20208;-77
2023/08/20 01:36:28;;;;;;;12.40;11.30;;;20.90;99.90;;;;;;5025172;28;20227;-76
2023/08/20 01:38:55;;;;;;;13.03;11.93;;;20.90;99.90;;;;;;5034902;28;20223;-77
2023/08/20 01:41:24;;;;;;;12.47;11.37;;;20.90;99.90;;;;;;5036936;28;20212;-77
2023/08/20 01:43:50;;;;;;;12.60;11.47;;;20.80;99.90;;;;;;5040936;28;20204;-76
2023/08/20 01:46:18;;;;;;;11.93;10.70;;;20.80;99.90;;;;;;5041091;28;20211;-77
2023/08/20 01:48:45;;;;;;;12.57;11.27;;;20.80;99.90;;;;;;5025111;28;20215;-77
2023/08/20 01:51:13;;;;;;;12.70;11.50;;;20.80;99.90;;;;;;5033787;28;20212;-77
2023/08/20 01:53:39;;;;;;;12.40;11.20;;;20.80;99.90;;;;;;5033440;28;20299;-77
2023/08/20 01:56:12;;;;;;;12.77;11.60;;;20.80;99.90;;;;;;5034610;28;20199;-77
2023/08/20 01:58:39;;;;;;;12.17;11.10;;;20.80;99.90;;;;;;5041216;28;20311;-77
2023/08/20 02:01:06;;;;;;;11.83;10.77;;;20.70;99.90;;;;;;5033802;28;20211;-77
2023/08/20 02:03:35;;;;;;;11.53;10.57;;;20.70;99.90;;;;;;5041623;28;20202;-77
2023/08/20 02:06:02;;;;;;;12.63;11.43;;;20.60;99.90;;;;;;5025002;28;20211;-77
2023/08/20 02:08:29;;;;;;;12.30;11.30;;;20.60;99.90;;;;;;5025851;28;20293;-77
2023/08/20 02:11:01;;;;;;;12.10;11.10;;;20.60;99.90;;;;;;5024198;28;20258;-76
2023/08/20 02:13:28;;;;;;;13.10;11.30;;;20.50;99.90;;;;;;5025117;28;20223;-77
2023/08/20 02:15:59;;;;;;;11.80;10.70;;;20.50;99.90;;;;;;5025039;28;20207;-76
2023/08/20 02:18:28;;;;;;;12.47;11.30;;;20.50;99.90;;;;;;5035697;28;20217;-76
2023/08/20 02:20:57;;;;;;;12.27;11.07;;;20.50;99.90;;;;;;5037800;28;20234;-77
2023/08/20 02:23:24;;;;;;;12.23;11.13;;;20.50;99.90;;;;;;5035237;28;20217;-76
2023/08/20 02:25:52;;;;;;;12.23;11.00;;;20.50;99.90;;;;;;5032743;28;20184;-77
2023/08/20 02:28:19;;;;;;;12.17;11.07;;;20.40;99.90;;;;;;5018843;28;20269;-77
2023/08/20 02:30:47;;;;;;;13.53;11.00;;;20.40;99.90;;;;;;5042140;28;20192;-77
2023/08/20 02:33:14;;;;;;;12.50;11.40;;;20.30;99.90;;;;;;5024213;28;20203;-77
2023/08/20 02:35:41;;;;;;;11.33;10.30;;;20.30;99.90;;;;;;5034657;28;20208;-77
2023/08/20 02:38:10;;;;;;;11.93;10.93;;;20.30;99.90;;;;;;5037094;28;20212;-77
2023/08/20 02:40:40;;;;;;;12.40;11.40;;;20.30;99.90;;;;;;5020947;28;20282;-76
2023/08/20 02:43:07;;;;;;;11.77;10.80;;;20.30;99.90;;;;;;5039362;28;20235;-77
2023/08/20 02:45:34;;;;;;;12.73;11.63;;;20.30;99.90;;;;;;5025439;28;20199;-76
2023/08/20 02:48:01;;;;;;;12.57;11.37;;;20.30;99.90;;;;;;5022428;28;20200;-79
2023/08/20 02:50:28;;;;;;;12.00;11.00;;;20.30;99.90;;;;;;5034965;28;20223;-77
2023/08/20 02:52:55;;;;;;;12.33;11.23;;;20.30;99.90;;;;;;5026011;28;20601;-77
2023/08/20 02:55:23;;;;;;;12.53;11.30;;;20.30;99.90;;;;;;5041698;28;20208;-77
2023/08/20 02:57:50;;;;;;;12.03;11.03;;;20.20;99.90;;;;;;5022867;28;20211;-78
2023/08/20 03:00:17;;;;;;;11.53;10.40;;;20.10;99.90;;;;;;5032932;28;20215;-78
2023/08/20 03:02:44;;;;;;;8.40;7.50;;;20.00;99.90;;;;;;5020804;28;20223;-78
2023/08/20 03:05:11;;;;;;;9.03;8.13;;;20.00;99.90;;;;;;5022056;28;20195;-78
2023/08/20 03:07:38;;;;;;;8.57;7.77;;;20.00;99.90;;;;;;5041105;28;20192;-78
2023/08/20 03:10:06;;;;;;;11.40;10.50;;;20.00;99.90;;;;;;5042183;28;20202;-78
2023/08/20 03:12:34;;;;;;;12.43;11.43;;;20.00;99.90;;;;;;5025726;28;20378;-79
2023/08/20 03:15:02;;;;;;;11.40;10.50;;;20.00;99.90;;;;;;5024691;28;20226;-78
2023/08/20 03:17:29;;;;;;;8.23;7.33;;;20.00;99.90;;;;;;5014169;28;20198;-78
2023/08/20 03:19:57;;;;;;;8.27;7.47;;;20.00;99.90;;;;;;5047900;28;20223;-79
2023/08/20 03:22:24;;;;;;;8.13;7.37;;;20.00;99.90;;;;;;5022637;28;20302;-78
2023/08/20 03:24:52;;;;;;;8.47;7.67;;;20.00;99.90;;;;;;5052064;28;20245;-77
2023/08/20 03:27:19;;;;;;;8.70;7.80;;;20.00;99.90;;;;;;5049122;28;20196;-78
2023/08/20 03:29:47;;;;;;;9.50;8.60;;;20.00;99.90;;;;;;5026834;28;20191;-78
2023/08/20 03:32:15;;;;;;;10.63;8.80;;;19.90;99.90;;;;;;5044126;28;20219;-78
2023/08/20 03:34:42;;;;;;;10.77;8.87;;;19.90;99.90;;;;;;5040951;28;20208;-77
2023/08/20 03:37:09;;;;;;;10.20;8.27;;;19.80;99.90;;;;;;5024257;28;20404;-78
2023/08/20 03:39:35;;;;;;;9.00;8.00;;;19.80;99.90;;;;;;5024174;28;20335;-78
2023/08/20 03:42:02;;;;;;;9.63;8.73;;;19.70;99.90;;;;;;5039943;28;20235;-78
2023/08/20 03:44:30;;;;;;;9.07;8.27;;;19.70;99.90;;;;;;5024807;28;20202;-78
2023/08/20 03:46:58;;;;;;;8.87;7.97;;;19.70;99.90;;;;;;5024138;28;20204;-77
2023/08/20 03:49:26;;;;;;;8.90;8.10;;;19.70;99.90;;;;;;5023065;28;20206;-78
2023/08/20 03:51:53;;;;;;;8.10;7.33;;;19.70;99.90;;;;;;5146253;23;20315;-79
2023/08/20 03:54:20;;;;;;;7.93;7.23;;;19.70;99.90;;;;;;5041891;28;20204;-79
2023/08/20 03:56:47;;;;;;;11.53;10.63;;;19.80;99.90;;;;;;5042759;28;20196;-79
2023/08/20 03:59:14;;;;;;;10.53;9.47;;;19.70;99.90;;;;;;5051132;28;20216;-79
2023/08/20 04:01:41;;;;;;;10.33;9.43;;;19.70;99.90;;;;;;5038239;28;20266;-79
2023/08/20 04:04:09;;;;;;;10.03;9.13;;;19.70;99.90;;;;;;5037542;28;20223;-79
2023/08/20 04:06:36;;;;;;;12.60;11.60;;;19.70;99.90;;;;;;5032048;28;20200;-79
2023/08/20 04:09:03;;;;;;;12.37;11.17;;;19.70;99.90;;;;;;5034757;28;20206;-81
2023/08/20 04:11:30;;;;;;;11.97;10.87;;;19.70;99.90;;;;;;5035233;28;20659;-79
2023/08/20 04:13:57;;;;;;;12.43;11.43;;;19.70;99.90;;;;;;5032103;28;20210;-78
2023/08/20 04:16:24;;;;;;;12.40;11.30;;;19.60;99.90;;;;;;5030504;28;20195;-79
2023/08/20 04:18:50;;;;;;;13.23;12.13;;;19.60;99.90;;;;;;5043969;28;20233;-79
2023/08/20 04:21:19;;;;;;;12.23;11.23;;;19.60;99.90;;;;;;5038771;28;20687;-78
2023/08/20 04:23:45;;;;;;;10.87;9.97;;;19.60;99.90;;;;;;5039539;28;20203;-78
2023/08/20 04:26:12;;;;;;;10.93;8.77;;;19.60;99.90;;;;;;5035490;28;20196;-78
2023/08/20 04:28:40;;;;;;;9.40;8.43;;;19.60;99.90;;;;;;5030508;28;20219;-78
2023/08/20 04:31:07;;;;;;;9.37;8.37;;;19.60;99.90;;;;;;5029445;28;20204;-81
2023/08/20 04:33:48;;;;;;;9.33;8.43;;;19.60;99.90;;;;;;5036729;28;20197;-79
2023/08/20 04:36:21;;;;;;;8.27;7.47;;;19.60;99.90;;;;;;5053113;28;20210;-79
2023/08/20 04:38:47;;;;;;;9.23;8.03;;;19.70;99.90;;;;;;5036667;28;20228;-79
2023/08/20 04:41:14;;;;;;;9.03;8.13;;;19.70;99.90;;;;;;5036585;28;20197;-78
2023/08/20 04:43:41;;;;;;;9.40;8.43;;;19.70;99.90;;;;;;5034542;28;20191;-79
2023/08/20 04:46:08;;;;;;;9.00;7.87;;;19.70;99.90;;;;;;5036972;28;20241;-78
2023/08/20 04:48:35;;;;;;;10.17;9.17;;;19.70;99.90;;;;;;5028896;28;20257;-78
2023/08/20 04:51:03;;;;;;;9.90;8.87;;;19.70;99.90;;;;;;5023748;28;20196;-76
2023/08/20 04:53:31;;;;;;;11.20;10.20;;;19.70;99.90;;;;;;5017131;28;20239;-76
2023/08/20 04:55:59;;;;;;;10.00;9.10;;;19.70;99.90;;;;;;5026772;28;20266;-78
2023/08/20 04:58:26;;;;;;;11.30;10.20;;;19.80;99.90;;;;;;5032887;28;20212;-78
2023/08/20 05:00:53;;;;;;;11.13;9.60;;;19.80;99.90;;;;;;5033956;28;20242;-79
2023/08/20 05:03:20;;;;;;;10.50;9.43;;;19.80;99.90;;;;;;5035507;28;20216;-77
2023/08/20 05:05:50;;;;;;;10.77;9.83;;;19.80;99.90;;;;;;5031903;28;20199;-77
2023/08/20 05:08:17;;;;;;;11.57;10.53;;;19.90;99.90;;;;;;5022981;28;20204;-79
2023/08/20 05:10:45;;;;;;;10.73;9.83;;;19.90;99.90;;;;;;5031496;28;20671;-78
2023/08/20 05:13:12;;;;;;;9.60;8.10;;;20.00;99.90;;;;;;5024543;28;20223;-79
2023/08/20 05:15:39;;;;;;;8.63;7.83;;;20.10;99.90;;;;;;5029467;28;20200;-78
2023/08/20 05:18:06;;;;;;;8.80;8.00;;;20.10;99.90;;;;;;5027655;28;20199;-78
2023/08/20 05:20:33;;;;;;;10.67;9.77;;;20.20;99.90;;;;;;5033216;28;20223;-78
2023/08/20 05:23:00;;;;;;;10.03;9.13;;;20.20;99.90;;;;;;5033700;28;20218;-78
2023/08/20 05:25:27;;;;;;;10.53;9.53;;;20.30;99.90;;;;;;5033559;28;20278;-78
2023/08/20 05:27:55;;;;;;;10.67;9.67;;;20.40;99.90;;;;;;5034387;28;20204;-78
2023/08/20 05:30:22;;;;;;;12.10;11.10;;;20.50;99.90;;;;;;5047222;28;20211;-79
2023/08/20 05:32:49;;;;;;;8.43;7.63;;;20.60;99.90;;;;;;5033373;28;20227;-79
2023/08/20 05:35:16;;;;;;;12.93;11.83;;;20.70;99.90;;;;;;5028839;28;20192;-80
2023/08/20 05:37:44;;;;;;;11.73;10.73;;;20.90;99.90;;;;;;5036143;28;20192;-79
2023/08/20 05:40:11;;;;;;;12.80;11.80;;;21.00;99.90;;;;;;5032801;28;20278;-79
2023/08/20 05:42:38;;;;;;;13.63;12.53;;;21.10;99.90;;;;;;5033009;28;20860;-81
2023/08/20 05:45:09;;;;;;;12.33;11.17;;;21.20;99.90;;;;;;5043323;28;20203;-81
2023/08/20 05:47:36;;;;;;;9.20;8.30;;;21.30;99.90;;;;;;5055735;28;20694;-82
2023/08/20 05:50:04;;;;;;;10.53;9.43;;;21.50;99.90;;;;;;5028603;28;20192;-82
2023/08/20 05:52:30;;;;;;;11.53;10.40;;;21.60;99.90;;;;;;5047661;28;20227;-82
2023/08/20 05:54:57;;;;;;;11.50;10.60;;;21.80;99.90;;;;;;5030302;28;20207;-82
2023/08/20 05:57:24;;;;;;;9.93;8.60;;;21.90;99.90;;;;;;5039718;28;20195;-82
2023/08/20 05:59:51;;;;;;;9.13;8.23;;;22.00;99.90;;;;;;5042559;28;20277;-82
2023/08/20 06:02:21;;;;;;;11.50;10.40;;;22.00;99.90;;;;;;5048810;28;20215;-82
2023/08/20 06:04:49;;;;;;;12.97;11.87;;;22.20;99.90;;;;;;5050607;28;20552;-82
2023/08/20 06:07:15;;;;;;;13.10;11.90;;;22.20;99.90;;;;;;5041704;28;20207;-82
2023/08/20 06:09:43;;;;;;;12.60;11.50;;;22.30;99.90;;;;;;5053420;28;20282;-85
2023/08/20 06:12:10;;;;;;;12.07;10.97;;;22.30;99.90;;;;;;5033189;28;20220;-81
2023/08/20 06:14:37;;;;;;;12.67;11.60;;;22.30;99.90;;;;;;5027138;28;20207;-82
2023/08/20 06:17:04;;;;;;;9.87;8.33;;;22.40;99.90;;;;;;5024992;28;20204;-81
2023/08/20 06:19:32;;;;;;;9.03;8.10;;;22.40;99.90;;;;;;5027218;28;20240;-82
2023/08/20 06:21:59;;;;;;;12.00;10.70;;;22.50;99.90;;;;;;5021794;28;20932;-82
2023/08/20 06:24:26;;;;;;;12.17;11.20;;;22.50;99.90;;;;;;5030999;28;20698;-82
2023/08/20 06:26:53;;;;;;;12.47;10.47;;;22.60;99.90;;;;;;5031659;28;20215;-83
2023/08/20 06:29:21;;;;;;;10.37;9.47;;;22.70;99.90;;;;;;5024589;28;20250;-85
2023/08/20 06:31:48;;;;;;;10.33;9.43;;;22.80;99.90;;;;;;5031037;28;20270;-80
2023/08/20 06:34:15;;;;;;;11.40;10.40;;;22.90;99.90;;;;;;5022691;28;20682;-80
2023/08/20 06:36:44;;;;;;;12.70;11.50;;;23.10;99.90;;;;;;5026231;28;20243;-80
2023/08/20 06:39:11;;;;;;;12.13;11.07;;;23.20;99.90;;;;;;5026929;28;20727;-80
2023/08/20 06:41:38;;;;;;;9.53;8.70;;;23.30;99.90;;;;;;5022150;28;20311;-80
2023/08/20 06:44:12;;;;;;;12.27;11.17;;;23.40;99.90;;;;;;5026349;28;20691;-80
2023/08/20 06:46:39;;;;;;;8.67;7.77;;;23.50;99.90;;;;;;5031960;28;20204;-81
2023/08/20 06:49:06;;;;;;;12.67;11.67;;;23.70;99.90;;;;;;5042887;28;20634;-84
2023/08/20 06:51:33;;;;;;;12.20;11.20;;;23.90;99.90;;;;;;5030102;28;20529;-84
2023/08/20 06:54:02;;;;;;;10.30;9.40;;;24.10;99.90;;;;;;5032262;28;20253;-83
2023/08/20 06:56:29;;;;;;;8.80;8.00;;;24.30;99.90;;;;;;5041017;28;20233;-83
2023/08/20 06:58:56;;;;;;;8.53;7.63;;;24.50;99.90;;;;;;5026839;28;20196;-84
2023/08/20 07:01:22;;;;;;;9.17;8.27;;;24.70;99.90;;;;;;5019158;28;20274;-84
2023/08/20 07:03:49;;;;;;;10.87;9.77;;;24.60;99.90;;;;;;5039218;28;20204;-84
2023/08/20 07:06:18;;;;;;;10.33;9.30;;;24.60;99.90;;;;;;5024900;28;20450;-84
2023/08/20 07:08:45;;;;;;;9.43;7.97;;;24.40;99.90;;;;;;5023994;28;20214;-84
2023/08/20 07:11:13;;;;;;;9.30;8.37;;;24.50;99.90;;;;;;5023182;28;20553;-83
2023/08/20 07:13:40;;;;;;;9.30;8.50;;;24.60;99.90;;;;;;5027022;28;20216;-82
2023/08/20 07:16:06;;;;;;;11.20;10.20;;;24.80;99.90;;;;;;5030858;28;20215;-85
2023/08/20 07:18:33;;;;;;;11.03;10.13;;;24.90;99.90;;;;;;5031984;28;20207;-85
2023/08/20 07:21:00;;;;;;;11.10;8.83;;;25.20;99.90;;;;;;5028647;28;20243;-82
2023/08/20 07:23:27;;;;;;;9.70;8.70;;;25.40;99.90;;;;;;5030652;28;20215;-85
2023/08/20 07:26:05;;;;;;;9.47;8.43;;;25.30;99.90;;;;;;5043970;28;20204;-83
2023/08/20 07:31:14;;;;;;;9.77;8.83;;;25.70;99.90;;;;;;5030925;28;20670;-84
2023/08/20 07:33:41;;;;;;;9.70;8.30;;;26.00;99.90;;;;;;5023220;28;20203;-83
2023/08/20 07:36:08;;;;;;;9.83;8.37;;;26.20;99.90;;;;;;5022895;28;20209;-82
2023/08/20 07:38:35;;;;;;;12.30;11.20;;;26.70;99.90;;;;;;5024825;28;20220;-83
2023/08/20 07:41:02;;;;;;;15.20;12.03;;;27.00;99.90;;;;;;5023280;28;20271;-83
2023/08/20 07:43:28;;;;;;;10.40;8.83;;;27.20;99.90;;;;;;5027108;28;20213;-83
2023/08/20 07:45:57;;;;;;;12.43;11.30;;;27.50;99.90;;;;;;5047890;28;20254;-83
2023/08/20 07:48:23;;;;;;;10.33;8.40;;;27.80;99.90;;;;;;5036916;28;20206;-83
2023/08/20 07:50:50;;;;;;;9.47;8.67;;;27.80;99.90;;;;;;5043973;28;20662;-83
2023/08/20 07:53:17;;;;;;;9.73;8.80;;;28.10;99.90;;;;;;5045808;28;20650;-83
2023/08/20 07:55:45;;;;;;;12.03;10.93;;;28.50;99.90;;;;;;5046229;28;20322;-83
2023/08/20 07:58:12;;;;;;;9.37;7.77;;;29.00;99.90;;;;;;5030747;28;20630;-83
2023/08/20 08:00:38;;;;;;;10.80;9.47;;;29.30;99.90;;;;;;5033668;28;20568;-82
2023/08/20 08:03:07;;;;;;;14.03;12.73;;;29.70;99.90;;;;;;5036141;28;20220;-80
2023/08/20 08:05:34;;;;;;;11.93;8.70;;;30.00;99.90;;;;;;5031601;28;20280;-81
2023/08/20 08:08:01;;;;;;;9.87;8.97;;;30.20;99.90;;;;;;5025458;28;20205;-81
2023/08/20 08:10:28;;;;;;;9.37;8.03;;;30.20;99.90;;;;;;5029439;28;20719;-82
2023/08/20 08:12:54;;;;;;;9.37;7.80;;;30.60;99.90;;;;;;5029788;28;20220;-80
2023/08/20 08:15:21;;;;;;;12.47;11.17;;;30.90;99.90;;;;;;5026766;28;20200;-80
2023/08/20 08:17:48;;;;;;;11.10;10.30;;;31.10;99.90;;;;;;5031060;28;20196;-84
2023/08/20 08:20:16;;;;;;;11.07;10.07;;;30.80;99.90;;;;;;5026373;28;20219;-87
2023/08/20 08:22:43;;;;;;;11.37;10.27;;;30.80;99.90;;;;;;5034810;28;20238;-85
2023/08/20 08:25:10;;;;;;;12.10;11.00;;;30.90;99.90;;;;;;5034809;28;20266;-81
2023/08/20 08:27:37;;;;;;;11.03;10.03;;;31.10;99.90;;;;;;5032452;28;20204;-82
2023/08/20 08:30:05;;;;;;;11.60;10.55;;;31.50;99.90;;;;;;5029052;28;20658;-82
2023/08/20 08:32:32;;;;;;;10.77;9.87;;;31.50;99.90;;;;;;5027486;28;20272;-82
2023/08/20 08:34:58;;;;;;;10.35;9.20;;;31.50;99.90;;;;;;5029118;28;20201;-81
2023/08/20 08:37:26;;;;;;;12.07;10.73;;;31.50;99.90;;;;;;5031386;28;20829;-82
2023/08/20 08:39:53;;;;;;;11.68;10.60;;;31.70;99.90;;;;;;5028514;28;20220;-83
2023/08/20 08:42:24;;;;;;;11.50;10.30;;;31.70;99.90;;;;;;5030275;28;20228;-81
2023/08/20 08:44:51;;;;;;;12.00;10.75;;;31.60;99.90;;;;;;5027348;28;20199;-83
2023/08/20 08:47:19;;;;;;;14.15;11.23;;;31.60;99.90;;;;;;5033414;28;20200;-82
2023/08/20 08:49:48;;;;;;;11.68;10.65;;;31.60;99.90;;;;;;5041645;28;20658;-83
2023/08/20 08:52:16;;;;;;;12.88;10.98;;;31.60;99.90;;;;;;5024183;28;20231;-83
2023/08/20 08:54:44;;;;;;;11.38;10.43;;;31.70;99.90;;;;;;5016905;28;20192;-82
2023/08/20 08:57:11;;;;;;;12.00;11.02;;;32.10;99.90;;;;;;5026264;28;20205;-81
2023/08/20 08:59:39;;;;;;;10.40;9.57;;;32.30;99.90;;;;;;5032382;28;20193;-82
2023/08/20 09:02:10;;;;;;;9.23;8.43;;;32.80;99.90;;;;;;5029082;28;20220;-81
2023/08/20 09:04:39;;;;;;;10.50;9.48;;;32.90;99.90;;;;;;5026897;28;20464;-81
2023/08/20 09:07:06;;;;;;;9.77;8.88;;;33.20;99.90;;;;;;5029922;28;20207;-81
2023/08/20 09:09:33;;;;;;;11.50;9.55;;;33.20;99.90;;;;;;5027181;28;20246;-81
2023/08/20 09:12:01;;;;;;;10.43;9.52;;;33.10;99.90;;;;;;5027358;28;20222;-81
2023/08/20 09:14:30;;;;;;;9.88;9.07;;;33.10;99.90;;;;;;5025700;28;20667;-83
2023/08/20 09:16:58;;;;;;;10.23;9.25;;;33.20;99.90;;;;;;5033403;28;20200;-81
2023/08/20 09:19:25;;;;;;;11.05;10.02;;;33.40;99.90;;;;;;5034358;28;20638;-81
2023/08/20 09:21:53;;;;;;;9.25;8.55;;;33.30;99.90;;;;;;5025646;28;20270;-83
2023/08/20 09:24:27;;;;;;;11.20;10.18;;;33.30;99.90;;;;;;5028043;28;20204;-82
2023/08/20 09:26:58;;;;;;;10.45;9.27;;;33.00;99.90;;;;;;5020011;28;20201;-81
2023/08/20 09:29:26;;;;;;;11.35;9.65;;;32.90;99.90;;;;;;5028900;28;20219;-79
2023/08/20 09:32:01;;;;;;;11.02;10.07;;;32.70;99.90;;;;;;5032579;28;20224;-80
2023/08/20 09:34:37;;;;;;;10.68;9.65;;;32.90;99.90;;;;;;5041148;28;20201;-81
2023/08/20 09:37:04;;;;;;;11.02;10.02;;;33.20;99.90;;;;;;5028043;28;20286;-83
2023/08/20 09:39:31;;;;;;;10.13;9.18;;;33.10;99.90;;;;;;5023189;28;20470;-83
2023/08/20 09:42:00;;;;;;;10.90;9.93;;;33.20;99.90;;;;;;5027231;28;20224;-83
2023/08/20 09:44:31;;;;;;;10.05;9.15;;;33.20;99.90;;;;;;5029720;28;20203;-83
2023/08/20 09:46:59;;;;;;;9.70;8.80;;;33.30;99.90;;;;;;5033140;28;20203;-81
2023/08/20 09:49:30;;;;;;;10.30;9.30;;;33.30;99.90;;;;;;5026136;28;20192;-82
2023/08/20 09:51:59;;;;;;;10.13;9.15;;;33.20;99.90;;;;;;5030442;28;20306;-81
2023/08/20 09:54:34;;;;;;;10.63;9.57;;;33.50;99.90;;;;;;5022317;28;20579;-79
2023/08/20 09:57:03;;;;;;;9.75;8.85;;;33.10;99.90;;;;;;5032365;28;20267;-82
2023/08/20 09:59:32;;;;;;;9.80;8.82;;;33.30;99.90;;;;;;5023968;28;20675;-82
2023/08/20 10:02:00;;;;;;;9.63;8.82;;;33.60;99.90;;;;;;5029958;28;20634;-81
2023/08/20 10:04:27;;;;;;;10.23;9.23;;;33.80;99.90;;;;;;5028081;28;20200;-84
2023/08/20 10:06:55;;;;;;;10.82;8.90;;;33.70;99.90;;;;;;5030480;28;20199;-83
2023/08/20 10:09:22;;;;;;;9.63;8.73;;;33.60;99.90;;;;;;5024664;28;20283;-83
2023/08/20 10:11:49;;;;;;;9.30;8.40;;;33.60;99.90;;;;;;5022998;28;20574;-83
2023/08/20 10:14:17;;;;;;;9.98;8.82;;;33.60;99.90;;;;;;5027733;28;20269;-82
2023/08/20 10:16:46;;;;;;;9.60;8.68;;;33.30;99.90;;;;;;5026271;28;21026;-82
2023/08/20 10:19:15;;;;;;;9.07;8.38;;;32.90;99.90;;;;;;5027002;28;20740;-81
2023/08/20 10:21:45;;;;;;;9.07;8.25;;;32.70;99.90;;;;;;5025500;28;20219;-82
2023/08/20 10:24:19;;;;;;;9.25;8.45;;;32.60;99.90;;;;;;5021384;28;20207;-82
2023/08/20 10:26:46;;;;;;;9.27;8.43;;;32.70;99.90;;;;;;5027896;28;20215;-82
2023/08/20 10:29:35;;;;;;;10.20;8.15;;;32.60;99.90;;;;;;5023782;28;20278;-81
2023/08/20 10:32:05;;;;;;;8.90;8.00;;;32.40;99.90;;;;;;5023317;28;20224;-81
2023/08/20 10:34:37;;;;;;;10.32;9.23;;;32.40;99.90;;;;;;5030160;28;20199;-83
2023/08/20 10:37:09;;;;;;;10.13;8.50;;;32.30;99.90;;;;;;5023223;28;20200;-81
2023/08/20 10:39:36;;;;;;;8.60;7.80;;;32.20;99.90;;;;;;5036734;28;20204;-84
2023/08/20 10:42:33;;;;;;;8.70;7.78;;;32.20;99.90;;;;;;5026541;28;20774;-82
2023/08/20 10:45:02;;;;;;;8.38;6.20;;;32.30;99.90;;;;;;4954624;28;20202;-83
2023/08/20 10:47:38;;;;;;;7.43;6.10;;;32.10;99.90;;;;;;5013275;28;20254;-85
2023/08/20 10:50:07;;;;;;;9.00;5.68;;;31.90;99.90;;;;;;5028294;28;20585;-81
2023/08/20 10:52:39;;;;;;;6.53;5.60;;;31.70;99.90;;;;;;5030070;28;20223;-79
2023/08/20 10:55:07;;;;;;;7.18;5.78;;;31.90;99.90;;;;;;5032805;28;20211;-80
2023/08/20 10:57:35;;;;;;;8.87;6.33;;;32.00;99.90;;;;;;5021815;28;20698;-81
2023/08/20 11:00:11;;;;;;;7.67;6.27;;;32.10;99.90;;;;;;5025851;28;20192;-81
2023/08/20 11:02:39;;;;;;;8.90;6.07;;;32.00;99.90;;;;;;5028163;28;20219;-81
2023/08/20 11:05:18;;;;;;;7.13;6.43;;;31.90;99.90;;;;;;5026574;28;20196;-81
2023/08/20 11:07:47;;;;;;;7.07;6.00;;;32.00;99.90;;;;;;5028459;28;20199;-81
2023/08/20 11:10:15;;;;;;;6.87;6.17;;;32.00;99.90;;;;;;5029767;28;20238;-79
2023/08/20 11:12:42;;;;;;;8.57;6.38;;;31.80;99.90;;;;;;5027869;28;20216;-79
2023/08/20 11:15:10;;;;;;;9.23;6.60;;;31.90;99.90;;;;;;5023117;28;20188;-83
2023/08/20 11:17:43;;;;;;;7.67;6.53;;;31.80;99.90;;;;;;5029805;28;20207;-79
2023/08/20 11:20:12;;;;;;;7.13;6.43;;;31.70;99.90;;;;;;5021385;28;20196;-79
2023/08/20 11:22:40;;;;;;;7.40;5.77;;;31.80;99.90;;;;;;5031069;28;20299;-79
2023/08/20 11:25:10;;;;;;;6.73;5.80;;;31.80;99.90;;;;;;5027286;28;20231;-81
2023/08/20 11:27:40;;;;;;;6.83;6.13;;;32.00;99.90;;;;;;5034983;28;20204;-78
2023/08/20 11:30:09;;;;;;;8.53;6.00;;;31.90;99.90;;;;;;5031046;28;20631;-83
2023/08/20 11:32:36;;;;;;;7.37;6.50;;;31.90;99.90;;;;;;5028375;28;20255;-81
2023/08/20 11:35:05;;;;;;;8.73;6.30;;;31.90;99.90;;;;;;5032688;28;20476;-80
2023/08/20 11:37:32;;;;;;;7.53;5.87;;;32.00;99.90;;;;;;5031545;28;20204;-82
2023/08/20 11:39:59;;;;;;;8.63;6.30;;;31.80;99.90;;;;;;5030080;28;20207;-83
2023/08/20 11:42:26;;;;;;;6.67;6.07;;;31.80;99.90;;;;;;5031044;28;20239;-80
2023/08/20 11:44:56;;;;;;;7.27;6.07;;;31.60;99.90;;;;;;5028835;28;20250;-82
2023/08/20 11:47:23;;;;;;;6.80;5.83;;;31.60;99.90;;;;;;5027900;28;20200;-80
2023/08/20 11:50:05;;;;;;;6.83;6.13;;;31.60;99.90;;;;;;5033430;28;20211;-79
2023/08/20 11:52:33;;;;;;;5.67;5.17;;;31.60;99.90;;;;;;5030534;28;20660;-82
2023/08/20 11:54:59;;;;;;;8.87;5.93;;;31.80;99.90;;;;;;5034295;28;20199;-81
2023/08/20 11:57:26;;;;;;;10.93;6.20;;;31.60;99.90;;;;;;5032431;28;20640;-82
2023/08/20 11:59:53;;;;;;;7.30;6.60;;;31.50;99.90;;;;;;5027085;28;20211;-82
2023/08/20 12:02:26;;;;;;;8.43;6.73;;;31.60;99.90;;;;;;5029080;28;20216;-83
2023/08/20 12:04:53;;;;;;;9.03;7.20;;;31.50;99.90;;;;;;5031181;28;20195;-80
2023/08/20 12:07:21;;;;;;;10.10;7.07;;;31.50;99.90;;;;;;5030471;28;20655;-79
2023/08/20 12:09:48;;;;;;;9.13;6.87;;;31.40;99.90;;;;;;5029295;28;20201;-81
2023/08/20 12:12:15;;;;;;;7.17;6.43;;;31.30;99.90;;;;;;5026828;28;20690;-80
2023/08/20 12:14:43;;;;;;;9.87;6.13;;;31.20;99.90;;;;;;5032969;28;20619;-79
2023/08/20 12:17:10;;;;;;;7.90;5.67;;;31.40;99.90;;;;;;5037313;28;20204;-81
2023/08/20 12:19:37;;;;;;;8.57;5.90;;;31.20;99.90;;;;;;5032348;28;20222;-82
2023/08/20 12:22:04;;;;;;;13.33;6.53;;;31.20;99.90;;;;;;5038882;28;20269;-82
2023/08/20 12:24:32;;;;;;;9.13;6.70;;;31.30;99.90;;;;;;5026351;28;20199;-82
2023/08/20 12:26:59;;;;;;;7.23;6.00;;;31.20;99.90;;;;;;5026233;28;20196;-79
2023/08/20 12:29:26;;;;;;;7.90;6.00;;;31.20;99.90;;;;;;5030032;28;20201;-81
2023/08/20 12:31:52;;;;;;;7.23;5.77;;;31.20;99.90;;;;;;5032362;28;20251;-81
2023/08/20 12:34:21;;;;;;;8.07;7.37;;;31.30;99.90;;;;;;5022910;28;20207;-81
2023/08/20 12:36:48;;;;;;;7.70;5.70;;;31.40;99.90;;;;;;5035655;28;20199;-82
2023/08/20 12:39:15;;;;;;;6.67;5.73;;;31.30;99.90;;;;;;5039050;28;20206;-81
2023/08/20 12:41:43;;;;;;;6.63;5.37;;;31.20;99.90;;;;;;5031257;28;20215;-81
2023/08/20 12:44:10;;;;;;;6.60;6.00;;;31.20;99.90;;;;;;5032747;28;20193;-80